createdAt,value
2023-02-07T00:01:21.834Z,-3.15
2023-02-07T00:03:52.641Z,-3.22
2023-02-07T00:06:26.714Z,-3.24
2023-02-07T00:08:54.514Z,-3.38
2023-02-07T00:11:23.189Z,-3.29
2023-02-07T00:13:53.993Z,-3.18
2023-02-07T00:16:21.865Z,-3.09
2023-02-07T00:18:48.554Z,-3.16
2023-02-07T00:21:19.359Z,-3.20
2023-02-07T00:23:47.011Z,-3.15
2023-02-07T00:26:15.217Z,-3.01
2023-02-07T00:28:44.562Z,-2.88
2023-02-07T00:31:16.630Z,-2.82
2023-02-07T00:33:45.208Z,-3.05
2023-02-07T00:36:14.918Z,-3.12
2023-02-07T00:38:42.175Z,-3.10
2023-02-07T00:41:11.064Z,-3.35
2023-02-07T00:43:37.688Z,-3.30
2023-02-07T00:46:05.644Z,-3.37
2023-02-07T00:48:33.518Z,-3.51
2023-02-07T00:51:00.692Z,-3.60
2023-02-07T00:53:29.204Z,-3.56
2023-02-07T00:55:56.274Z,-3.57
2023-02-07T00:58:23.565Z,-3.37
2023-02-07T01:00:50.445Z,-3.32
2023-02-07T01:03:17.790Z,-3.41
2023-02-07T01:05:44.693Z,-3.34
2023-02-07T01:08:11.732Z,-3.29
2023-02-07T01:10:43.701Z,-3.36
2023-02-07T01:13:11.760Z,-3.44
2023-02-07T01:15:40.734Z,-3.49
2023-02-07T01:18:08.360Z,-3.44
2023-02-07T01:20:35.482Z,-3.46
2023-02-07T01:23:05.580Z,-3.42
2023-02-07T01:25:32.311Z,-3.45
2023-02-07T01:27:58.973Z,-3.35
2023-02-07T01:30:25.617Z,-3.45
2023-02-07T01:32:52.292Z,-3.46
2023-02-07T01:35:18.997Z,-3.41
2023-02-07T01:37:45.675Z,-3.50
2023-02-07T01:40:13.167Z,-3.47
2023-02-07T01:42:39.907Z,-3.66
2023-02-07T01:45:38.389Z,-3.84
2023-02-07T01:48:20.591Z,-3.91
2023-02-07T01:50:49.680Z,-3.98
2023-02-07T01:53:18.805Z,-4.08
2023-02-07T01:55:47.585Z,-4.19
2023-02-07T01:58:14.934Z,-4.42
2023-02-07T02:00:41.925Z,-4.26
2023-02-07T02:03:08.597Z,-4.47
2023-02-07T02:05:37.299Z,-4.47
2023-02-07T02:08:04.654Z,-4.56
2023-02-07T02:10:50.169Z,-4.62
2023-02-07T02:13:25.921Z,-4.58
2023-02-07T02:16:19.031Z,-4.65
2023-02-07T02:19:15.066Z,-4.76
2023-02-07T02:22:12.383Z,-4.62
2023-02-07T02:25:04.512Z,-4.75
2023-02-07T02:27:34.318Z,-4.80
2023-02-07T02:30:03.825Z,-4.70
2023-02-07T02:32:42.749Z,-4.66
2023-02-07T02:35:28.179Z,-4.67
2023-02-07T02:38:13.520Z,-4.86
2023-02-07T02:40:58.670Z,-5.00
2023-02-07T02:43:57.232Z,-4.95
2023-02-07T02:46:35.825Z,-5.05
2023-02-07T02:49:04.989Z,-5.10
2023-02-07T02:51:32.534Z,-5.11
2023-02-07T02:54:01.101Z,-5.16
2023-02-07T02:56:41.591Z,-5.05
2023-02-07T02:59:34.307Z,-4.87
2023-02-07T03:02:13.337Z,-4.95
2023-02-07T03:04:53.537Z,-5.10
2023-02-07T03:07:38.888Z,-5.05
2023-02-07T03:10:18.608Z,-5.11
2023-02-07T03:12:57.395Z,-5.06
2023-02-07T03:15:41.375Z,-5.11
2023-02-07T03:18:25.800Z,-4.89
2023-02-07T03:21:03.422Z,-4.70
2023-02-07T03:23:31.921Z,-4.68
2023-02-07T03:26:02.198Z,-4.64
2023-02-07T03:28:31.465Z,-4.70
2023-02-07T03:31:00.693Z,-4.79
2023-02-07T03:33:28.794Z,-4.75
2023-02-07T03:36:38.865Z,-4.68
2023-02-07T03:39:05.659Z,-4.71
2023-02-07T03:41:42.335Z,-4.73
2023-02-07T03:44:12.865Z,-4.71
2023-02-07T03:46:40.342Z,-4.79
2023-02-07T03:49:11.438Z,-4.91
2023-02-07T03:51:38.136Z,-4.84
2023-02-07T03:54:04.808Z,-4.92
2023-02-07T03:56:31.470Z,-4.71
2023-02-07T03:58:58.089Z,-4.80
2023-02-07T04:01:24.772Z,-4.86
2023-02-07T04:03:51.428Z,-4.94
2023-02-07T04:06:18.445Z,-5.11
2023-02-07T04:08:45.072Z,-5.18
2023-02-07T04:11:11.896Z,-5.07
2023-02-07T04:13:38.554Z,-4.98
2023-02-07T04:16:06.616Z,-5.06
2023-02-07T04:18:33.820Z,-5.19
2023-02-07T04:21:05.613Z,-5.20
2023-02-07T04:23:32.231Z,-5.34
2023-02-07T04:25:59.257Z,-5.33
2023-02-07T04:28:28.252Z,-5.35
2023-02-07T04:30:55.368Z,-5.34
2023-02-07T04:33:22.415Z,-5.30
2023-02-07T04:35:56.464Z,-5.23
2023-02-07T04:38:23.799Z,-5.23
2023-02-07T04:40:51.116Z,-5.36
2023-02-07T04:43:18.697Z,-5.55
2023-02-07T04:45:48.454Z,-5.61
2023-02-07T04:48:15.490Z,-5.56
2023-02-07T04:50:42.226Z,-5.39
2023-02-07T04:53:08.930Z,-5.35
2023-02-07T04:55:37.410Z,-5.54
2023-02-07T04:58:07.567Z,-5.55
2023-02-07T05:00:34.743Z,-5.51
2023-02-07T05:03:01.396Z,-5.57
2023-02-07T05:05:28.039Z,-5.50
2023-02-07T05:07:54.718Z,-5.45
2023-02-07T05:10:21.414Z,-5.47
2023-02-07T05:12:48.118Z,-5.50
2023-02-07T05:15:15.672Z,-5.42
2023-02-07T05:17:42.400Z,-5.34
2023-02-07T05:20:09.658Z,-5.33
2023-02-07T05:22:36.387Z,-5.44
2023-02-07T05:25:03.329Z,-5.38
2023-02-07T05:27:30.713Z,-5.33
2023-02-07T05:29:59.437Z,-5.36
2023-02-07T05:32:44.994Z,-5.38
2023-02-07T05:35:12.056Z,-5.45
2023-02-07T05:37:38.791Z,-5.48
2023-02-07T05:40:05.990Z,-5.51
2023-02-07T05:42:32.932Z,-5.52
2023-02-07T05:44:59.582Z,-5.57
2023-02-07T05:47:26.456Z,-5.51
2023-02-07T05:49:53.192Z,-5.44
2023-02-07T05:52:19.949Z,-5.47
2023-02-07T05:54:46.697Z,-5.58
2023-02-07T05:57:13.599Z,-5.58
2023-02-07T05:59:40.265Z,-5.58
2023-02-07T06:02:07.060Z,-5.54
2023-02-07T06:04:33.983Z,-5.53
2023-02-07T06:07:00.915Z,-5.65
2023-02-07T06:09:27.844Z,-5.63
2023-02-07T06:11:56.117Z,-5.67
2023-02-07T06:14:23.613Z,-5.74
2023-02-07T06:16:50.317Z,-5.68
2023-02-07T06:19:16.956Z,-5.69
2023-02-07T06:21:46.749Z,-5.71
2023-02-07T06:24:15.629Z,-5.71
2023-02-07T06:26:42.483Z,-5.73
2023-02-07T06:29:09.700Z,-5.73
2023-02-07T06:31:36.750Z,-5.77
2023-02-07T06:34:03.455Z,-5.69
2023-02-07T06:36:30.350Z,-5.65
2023-02-07T06:38:57.686Z,-5.74
2023-02-07T06:41:24.338Z,-5.78
2023-02-07T06:43:51.340Z,-5.73
2023-02-07T06:46:18.302Z,-5.66
2023-02-07T06:48:45.080Z,-5.79
2023-02-07T06:51:12.988Z,-5.87
2023-02-07T06:53:39.761Z,-5.91
2023-02-07T06:56:06.626Z,-5.94
2023-02-07T06:58:34.386Z,-5.94
2023-02-07T07:01:03.553Z,-5.83
2023-02-07T07:03:30.569Z,-5.75
2023-02-07T07:05:59.065Z,-5.74
2023-02-07T07:08:27.110Z,-5.75
2023-02-07T07:10:54.744Z,-5.84
2023-02-07T07:13:21.435Z,-5.87
2023-02-07T07:15:48.234Z,-5.90
2023-02-07T07:18:15.060Z,-5.93
2023-02-07T07:20:41.828Z,-5.88
2023-02-07T07:23:09.675Z,-5.82
2023-02-07T07:25:36.662Z,-5.81
2023-02-07T07:28:03.605Z,-5.72
2023-02-07T07:30:31.298Z,-5.69
2023-02-07T07:32:58.065Z,-5.87
2023-02-07T07:35:24.742Z,-5.89
2023-02-07T07:37:52.701Z,-5.84
2023-02-07T07:40:20.006Z,-5.74
2023-02-07T07:42:50.002Z,-5.65
2023-02-07T07:45:28.848Z,-5.53
2023-02-07T07:47:55.833Z,-5.48
2023-02-07T07:50:23.968Z,-5.42
2023-02-07T07:52:52.862Z,-5.49
2023-02-07T07:55:19.737Z,-5.43
2023-02-07T07:57:46.484Z,-5.30
2023-02-07T08:00:13.814Z,-5.17
2023-02-07T08:02:41.451Z,-5.14
2023-02-07T08:05:09.070Z,-5.23
2023-02-07T08:07:35.800Z,-5.08
2023-02-07T08:10:02.729Z,-4.97
2023-02-07T08:12:29.847Z,-4.84
2023-02-07T08:14:56.843Z,-4.72
2023-02-07T08:17:23.641Z,-4.61
2023-02-07T08:19:52.483Z,-4.58
2023-02-07T08:22:19.366Z,-4.53
2023-02-07T08:24:46.062Z,-4.50
2023-02-07T08:27:12.842Z,-4.26
2023-02-07T08:29:39.567Z,-4.13
2023-02-07T08:32:06.388Z,-4.26
2023-02-07T08:34:37.647Z,-4.15
2023-02-07T08:37:06.647Z,-4.00
2023-02-07T08:39:35.449Z,-3.82
2023-02-07T08:42:03.175Z,-3.60
2023-02-07T08:44:30.116Z,-3.56
2023-02-07T08:46:57.055Z,-3.53
2023-02-07T08:49:23.860Z,-3.53
2023-02-07T08:51:50.765Z,-3.55
2023-02-07T08:54:17.531Z,-3.45
2023-02-07T08:56:45.988Z,-3.37
2023-02-07T08:59:14.023Z,-3.26
2023-02-07T09:01:40.990Z,-3.09
2023-02-07T09:04:08.525Z,-2.94
2023-02-07T09:06:35.217Z,-2.92
2023-02-07T09:09:01.979Z,-3.05
2023-02-07T09:11:28.841Z,-2.84
2023-02-07T09:13:55.751Z,-2.74
2023-02-07T09:16:23.395Z,-2.57
2023-02-07T09:18:53.411Z,-2.36
2023-02-07T09:21:20.309Z,-2.39
2023-02-07T09:23:47.034Z,-2.24
2023-02-07T09:26:22.096Z,-2.18
2023-02-07T09:28:49.132Z,-2.41
2023-02-07T09:31:16.482Z,-2.47
2023-02-07T09:33:43.417Z,-2.34
2023-02-07T09:36:21.869Z,-2.46
2023-02-07T09:38:48.642Z,-2.34
2023-02-07T09:41:41.605Z,-2.15
2023-02-07T09:44:20.538Z,-1.95
2023-02-07T09:46:54.227Z,-2.01
2023-02-07T09:49:33.636Z,-2.33
2023-02-07T09:52:02.177Z,-2.38
2023-02-07T09:54:35.952Z,-2.36
2023-02-07T09:57:07.360Z,-2.29
2023-02-07T09:59:52.778Z,-2.30
2023-02-07T10:02:30.968Z,-2.35
2023-02-07T10:05:02.622Z,-2.30
2023-02-07T10:07:30.374Z,-2.16
2023-02-07T10:10:00.571Z,-1.92
2023-02-07T10:12:48.635Z,-2.01
2023-02-07T10:16:07.488Z,-2.13
2023-02-07T10:18:46.704Z,-1.78
2023-02-07T10:21:25.798Z,-1.69
2023-02-07T10:23:58.607Z,-1.54
2023-02-07T10:26:32.763Z,-1.56
2023-02-07T10:29:25.947Z,-1.64
2023-02-07T10:31:55.646Z,-1.57
2023-02-07T10:34:35.459Z,-1.34
2023-02-07T10:37:11.964Z,-1.46
2023-02-07T10:39:43.892Z,-1.46
2023-02-07T10:42:16.203Z,-1.35
2023-02-07T10:44:43.236Z,-1.10
2023-02-07T10:47:15.201Z,-0.79
2023-02-07T10:49:45.519Z,-0.90
2023-02-07T10:52:21.335Z,-0.73
2023-02-07T10:54:55.267Z,-1.08
2023-02-07T10:57:23.945Z,-0.95
2023-02-07T10:59:58.739Z,-0.56
2023-02-07T11:02:28.619Z,-0.30
2023-02-07T11:04:57.320Z,-0.25
2023-02-07T11:07:25.455Z,-0.05
2023-02-07T11:09:52.606Z,-0.01
2023-02-07T11:12:27.704Z,-0.16
2023-02-07T11:15:01.449Z,0.05
2023-02-07T11:17:28.675Z,-0.10
2023-02-07T11:19:56.296Z,-0.16
2023-02-07T11:22:24.684Z,0.08
2023-02-07T11:24:59.794Z,-0.10
2023-02-07T11:27:26.794Z,-0.18
2023-02-07T11:29:59.769Z,0.01
2023-02-07T11:32:28.408Z,0.12
2023-02-07T11:35:05.747Z,-0.12
2023-02-07T11:37:34.506Z,-0.06
2023-02-07T11:40:19.302Z,-0.06
2023-02-07T11:42:56.880Z,0.07
2023-02-07T11:45:23.875Z,0.12
2023-02-07T11:47:55.491Z,-0.05
2023-02-07T11:50:30.485Z,-0.00
2023-02-07T11:53:00.356Z,0.03
2023-02-07T11:55:38.746Z,0.07
2023-02-07T11:58:17.793Z,0.06
2023-02-07T12:00:45.451Z,0.04
2023-02-07T12:03:43.063Z,-0.12
2023-02-07T12:06:15.731Z,0.10
2023-02-07T12:08:44.195Z,0.23
2023-02-07T12:11:18.056Z,0.49
2023-02-07T12:13:52.655Z,0.69
2023-02-07T12:16:25.430Z,0.73
2023-02-07T12:19:01.805Z,0.95
2023-02-07T12:21:39.248Z,1.49
2023-02-07T12:24:17.221Z,1.03
2023-02-07T12:26:47.813Z,1.46
2023-02-07T12:29:38.258Z,1.61
2023-02-07T12:32:14.294Z,1.38
2023-02-07T12:34:53.497Z,1.04
2023-02-07T12:37:32.267Z,0.69
2023-02-07T12:40:08.342Z,0.80
2023-02-07T12:45:57.116Z,1.04
2023-02-07T12:48:30.711Z,1.14
2023-02-07T12:51:19.547Z,0.94
2023-02-07T12:54:05.169Z,0.88
2023-02-07T12:56:54.237Z,0.94
2023-02-07T12:59:41.556Z,0.87
2023-02-07T13:02:27.271Z,0.90
2023-02-07T13:05:10.203Z,0.78
2023-02-07T13:07:36.881Z,0.77
2023-02-07T13:10:11.469Z,0.93
2023-02-07T13:12:43.187Z,0.74
2023-02-07T13:15:22.002Z,0.90
2023-02-07T13:18:01.795Z,0.92
2023-02-07T13:20:50.170Z,1.34
2023-02-07T13:23:21.479Z,1.47
2023-02-07T13:26:02.338Z,1.38
2023-02-07T13:28:42.671Z,0.81
2023-02-07T13:31:13.950Z,0.94
2023-02-07T13:33:42.242Z,1.24
2023-02-07T13:36:36.210Z,1.33
2023-02-07T13:39:19.045Z,1.34
2023-02-07T13:42:08.553Z,1.35
2023-02-07T13:44:44.446Z,1.29
2023-02-07T13:47:17.164Z,1.09
2023-02-07T13:49:54.322Z,1.00
2023-02-07T13:52:32.704Z,0.80
2023-02-07T13:55:14.786Z,0.89
2023-02-07T13:58:02.613Z,1.17
2023-02-07T14:00:32.149Z,1.07
2023-02-07T14:03:05.001Z,0.75
2023-02-07T14:05:40.464Z,0.82
2023-02-07T14:08:24.849Z,1.13
2023-02-07T14:10:54.425Z,1.41
2023-02-07T14:13:27.146Z,1.31
2023-02-07T14:16:05.184Z,0.99
2023-02-07T14:18:40.799Z,0.94
2023-02-07T14:21:20.057Z,0.86
2023-02-07T14:23:59.225Z,0.67
2023-02-07T14:26:38.506Z,0.71
2023-02-07T14:29:20.392Z,0.52
2023-02-07T14:31:59.484Z,0.64
2023-02-07T14:35:03.426Z,0.45
2023-02-07T14:37:46.504Z,0.60
2023-02-07T14:40:54.412Z,0.67
2023-02-07T14:43:29.636Z,0.46
2023-02-07T14:45:56.444Z,0.21
2023-02-07T14:48:58.409Z,0.19
2023-02-07T14:51:37.114Z,0.21
2023-02-07T14:54:13.405Z,0.27
2023-02-07T14:56:40.228Z,0.78
2023-02-07T14:59:14.598Z,1.00
2023-02-07T15:01:41.623Z,0.55
2023-02-07T15:04:10.774Z,0.18
2023-02-07T15:06:44.116Z,0.05
2023-02-07T15:09:23.676Z,-0.03
2023-02-07T15:11:59.863Z,-0.12
2023-02-07T15:14:34.036Z,-0.08
2023-02-07T15:17:05.046Z,-0.22
2023-02-07T15:19:38.180Z,-0.28
2023-02-07T15:22:20.427Z,-0.31
2023-02-07T15:24:56.010Z,-0.47
2023-02-07T15:27:27.551Z,-0.36
2023-02-07T15:29:59.874Z,-0.42
2023-02-07T15:32:30.176Z,-0.51
2023-02-07T15:34:58.202Z,-0.51
2023-02-07T15:37:26.668Z,-0.54
2023-02-07T15:39:55.829Z,-0.64
2023-02-07T15:42:23.253Z,-0.69
2023-02-07T15:44:55.283Z,-0.67
2023-02-07T15:47:28.072Z,-0.69
2023-02-07T15:50:07.508Z,-0.68
2023-02-07T15:52:36.449Z,-0.65
2023-02-07T15:55:17.745Z,-0.72
2023-02-07T15:57:45.794Z,-0.68
2023-02-07T16:00:24.789Z,-0.67
2023-02-07T16:03:03.893Z,-0.78
2023-02-07T16:05:34.535Z,-0.83
2023-02-07T16:08:02.177Z,-0.87
2023-02-07T16:10:33.994Z,-1.03
2023-02-07T16:13:00.565Z,-0.98
2023-02-07T16:15:36.679Z,-1.03
2023-02-07T16:18:04.815Z,-1.04
2023-02-07T16:20:35.317Z,-1.18
2023-02-07T16:23:07.569Z,-1.24
2023-02-07T16:25:36.416Z,-1.24
2023-02-07T16:28:12.893Z,-1.27
2023-02-07T16:30:41.282Z,-1.30
2023-02-07T16:33:12.657Z,-1.41
2023-02-07T16:35:39.519Z,-1.42
2023-02-07T16:38:06.216Z,-1.50
2023-02-07T16:40:33.001Z,-1.54
2023-02-07T16:43:02.851Z,-1.51
2023-02-07T16:45:30.436Z,-1.56
2023-02-07T16:47:59.070Z,-1.57
2023-02-07T16:50:28.849Z,-1.60
2023-02-07T16:52:59.712Z,-1.62
2023-02-07T16:55:28.673Z,-1.74
2023-02-07T16:57:57.719Z,-1.82
2023-02-07T17:00:27.097Z,-1.86
2023-02-07T17:02:54.441Z,-1.84
2023-02-07T17:05:22.736Z,-1.81
2023-02-07T17:07:50.523Z,-1.82
2023-02-07T17:10:30.714Z,-1.78
2023-02-07T17:12:58.264Z,-1.74
2023-02-07T17:15:25.624Z,-1.80
2023-02-07T17:17:53.930Z,-1.88
2023-02-07T17:20:32.856Z,-1.91
2023-02-07T17:23:00.726Z,-1.91
2023-02-07T17:25:30.047Z,-1.94
2023-02-07T17:27:58.978Z,-1.89
2023-02-07T17:30:30.236Z,-1.93
2023-02-07T17:32:58.730Z,-1.88
2023-02-07T17:35:25.827Z,-1.90
2023-02-07T17:37:53.657Z,-1.91
2023-02-07T17:40:23.454Z,-1.96
2023-02-07T17:42:50.866Z,-1.93
2023-02-07T17:45:18.730Z,-1.99
2023-02-07T17:47:45.839Z,-1.98
2023-02-07T17:50:18.379Z,-2.01
2023-02-07T17:52:45.954Z,-2.05
2023-02-07T17:55:13.777Z,-2.11
2023-02-07T17:57:42.662Z,-2.13
2023-02-07T18:00:18.918Z,-2.24
2023-02-07T18:02:47.573Z,-2.23
2023-02-07T18:05:15.952Z,-2.32
2023-02-07T18:07:43.595Z,-2.29
2023-02-07T18:10:16.740Z,-2.34
2023-02-07T18:12:43.975Z,-2.30
2023-02-07T18:15:11.373Z,-2.25
2023-02-07T18:17:38.376Z,-2.33
2023-02-07T18:20:07.328Z,-2.34
2023-02-07T18:22:34.194Z,-2.49
2023-02-07T18:25:01.191Z,-2.44
2023-02-07T18:27:28.088Z,-2.44
2023-02-07T18:29:54.928Z,-2.56
2023-02-07T18:32:21.816Z,-2.63
2023-02-07T18:34:48.818Z,-2.52
2023-02-07T18:37:15.527Z,-2.51
2023-02-07T18:39:42.226Z,-2.53
2023-02-07T18:42:08.889Z,-2.66
2023-02-07T18:44:35.572Z,-2.73
2023-02-07T18:47:02.575Z,-2.65
2023-02-07T18:49:29.444Z,-2.63
2023-02-07T18:51:56.316Z,-2.64
2023-02-07T18:54:24.241Z,-2.67
2023-02-07T18:56:52.631Z,-2.71
2023-02-07T18:59:23.089Z,-2.80
2023-02-07T19:01:51.143Z,-2.83
2023-02-07T19:04:18.063Z,-2.84
2023-02-07T19:06:45.811Z,-2.80
2023-02-07T19:09:13.216Z,-2.84
2023-02-07T19:11:40.611Z,-2.93
2023-02-07T19:14:16.117Z,-2.84
2023-02-07T19:16:43.580Z,-2.86
2023-02-07T19:19:13.577Z,-2.85
2023-02-07T19:21:40.600Z,-2.88
2023-02-07T19:24:10.300Z,-2.94
2023-02-07T19:26:38.950Z,-3.00
2023-02-07T19:29:06.080Z,-2.99
2023-02-07T19:31:33.645Z,-2.94
2023-02-07T19:34:00.436Z,-2.93
2023-02-07T19:36:27.899Z,-2.95
2023-02-07T19:38:54.776Z,-2.99
2023-02-07T19:41:26.339Z,-3.07
2023-02-07T19:43:54.146Z,-3.15
2023-02-07T19:46:21.729Z,-3.23
2023-02-07T19:48:49.175Z,-3.20
2023-02-07T19:51:20.245Z,-3.25
2023-02-07T19:53:50.114Z,-3.33
2023-02-07T19:56:19.190Z,-3.32
2023-02-07T19:58:49.133Z,-3.46
2023-02-07T20:01:16.993Z,-3.46
2023-02-07T20:03:44.423Z,-3.44
2023-02-07T20:06:13.457Z,-3.49
2023-02-07T20:08:41.147Z,-3.50
2023-02-07T20:11:13.249Z,-3.47
2023-02-07T20:13:42.739Z,-3.52
2023-02-07T20:16:12.372Z,-3.63
2023-02-07T20:18:39.807Z,-3.60
2023-02-07T20:21:11.669Z,-3.56
2023-02-07T20:23:39.969Z,-3.61
2023-02-07T20:26:13.800Z,-3.63
2023-02-07T20:28:41.850Z,-3.74
2023-02-07T20:31:10.195Z,-3.73
2023-02-07T20:33:38.440Z,-3.63
2023-02-07T20:36:05.953Z,-3.75
2023-02-07T20:38:32.812Z,-3.76
2023-02-07T20:41:29.075Z,-3.81
2023-02-07T20:44:03.055Z,-3.78
2023-02-07T20:46:32.482Z,-3.75
2023-02-07T20:49:01.597Z,-3.78
2023-02-07T20:51:29.729Z,-3.78
2023-02-07T20:53:58.988Z,-3.78
2023-02-07T20:56:27.091Z,-3.78
2023-02-07T20:58:54.735Z,-3.87
2023-02-07T21:01:27.739Z,-3.81
2023-02-07T21:03:56.876Z,-3.75
2023-02-07T21:06:24.758Z,-3.73
2023-02-07T21:08:59.576Z,-3.72
2023-02-07T21:11:28.866Z,-3.79
2023-02-07T21:13:55.917Z,-3.77
2023-02-07T21:16:23.665Z,-3.78
2023-02-07T21:18:50.749Z,-3.74
2023-02-07T21:21:18.331Z,-3.69
2023-02-07T21:23:45.376Z,-3.77
2023-02-07T21:26:14.836Z,-3.81
2023-02-07T21:28:43.563Z,-3.83
2023-02-07T21:31:16.036Z,-3.80
2023-02-07T21:33:43.952Z,-3.89
2023-02-07T21:36:16.581Z,-3.93
2023-02-07T21:38:46.629Z,-3.97
2023-02-07T21:41:14.844Z,-3.99
2023-02-07T21:43:42.202Z,-4.14
2023-02-07T21:46:22.848Z,-4.19
2023-02-07T21:48:53.638Z,-4.28
2023-02-07T21:51:23.109Z,-4.33
2023-02-07T21:53:51.301Z,-4.48
2023-02-07T21:56:23.403Z,-4.43
2023-02-07T21:59:02.700Z,-4.45
2023-02-07T22:01:30.768Z,-4.62
2023-02-07T22:04:00.681Z,-4.60
2023-02-07T22:06:28.642Z,-4.55
2023-02-07T22:08:57.518Z,-4.59
2023-02-07T22:11:26.664Z,-4.60
2023-02-07T22:13:54.402Z,-4.63
2023-02-07T22:16:23.298Z,-4.59
2023-02-07T22:18:52.292Z,-4.61
2023-02-07T22:21:24.827Z,-4.52
2023-02-07T22:23:52.421Z,-4.57
2023-02-07T22:26:19.803Z,-4.52
2023-02-07T22:28:47.431Z,-4.47
2023-02-07T22:31:17.768Z,-4.51
2023-02-07T22:33:45.177Z,-4.57
2023-02-07T22:36:17.282Z,-4.63
2023-02-07T22:38:43.920Z,-4.54
2023-02-07T22:41:10.657Z,-4.53
2023-02-07T22:43:39.168Z,-4.52
2023-02-07T22:46:07.767Z,-4.48
2023-02-07T22:48:35.628Z,-4.49
2023-02-07T22:51:13.849Z,-4.60
2023-02-07T22:53:41.228Z,-4.67
2023-02-07T22:56:08.446Z,-4.58
2023-02-07T22:58:35.370Z,-4.66
2023-02-07T23:01:02.114Z,-4.67
2023-02-07T23:03:29.249Z,-4.67
2023-02-07T23:05:56.014Z,-4.76
2023-02-07T23:08:25.071Z,-4.72
2023-02-07T23:10:51.706Z,-4.67
2023-02-07T23:13:18.457Z,-4.58
2023-02-07T23:15:48.628Z,-4.63
2023-02-07T23:18:15.992Z,-4.65
2023-02-07T23:20:44.623Z,-4.63
2023-02-07T23:23:14.422Z,-4.72
2023-02-07T23:25:45.756Z,-4.81
2023-02-07T23:28:13.613Z,-4.80
2023-02-07T23:30:41.369Z,-4.75
2023-02-07T23:33:09.870Z,-4.78
2023-02-07T23:35:37.005Z,-4.82
2023-02-07T23:38:04.441Z,-4.88
2023-02-07T23:40:31.277Z,-4.91
2023-02-07T23:42:58.131Z,-4.96
2023-02-07T23:45:25.177Z,-5.07
2023-02-07T23:47:51.919Z,-5.09
2023-02-07T23:50:20.037Z,-5.10
2023-02-07T23:52:46.745Z,-5.07
2023-02-07T23:55:13.413Z,-5.16
2023-02-07T23:57:40.354Z,-5.16
